Time;durP1;ratioP1;P1;durP2;ratioP2;P2;SDS_P1;SDS_P2;PMS_P1;PMS_P2;Temp;Humidity;BMP_temperature;BMP_pressure;BME280_temperature;BME280_humidity;BME280_pressure;Samples;Min_cycle;Max_cycle;Signal;HPM_P1;HPM_P2
2022/09/09 00:04:30;;;;;;;6.82;1.90;;;;;;;15.62;63.00;99306.16;10395834;28;20058;-81
2022/09/09 00:10:19;;;;;;;8.13;1.90;;;;;;;15.51;63.24;99308.91;10397008;28;20922;-81
2022/09/09 00:15:27;;;;;;;8.65;1.90;;;;;;;15.56;62.73;99298.78;10375962;28;20411;-81
2022/09/09 00:20:42;;;;;;;7.00;1.83;;;;;;;15.46;63.09;99311.09;10395677;28;20550;-81
2022/09/09 00:25:56;;;;;;;7.55;2.08;;;;;;;15.46;63.44;99300.56;10394091;28;20063;-80
2022/09/09 00:31:10;;;;;;;6.10;1.77;;;;;;;15.45;63.39;99301.53;10395879;28;20054;-80
2022/09/09 00:36:17;;;;;;;7.80;1.88;;;;;;;15.46;63.14;99299.72;10393589;28;20082;-81
2022/09/09 00:42:03;;;;;;;8.25;2.15;;;;;;;15.43;63.34;99301.66;10393754;28;20063;-80
2022/09/09 00:47:32;;;;;;;3.65;1.73;;;;;;;15.41;63.20;99298.34;10353667;28;20049;-80
2022/09/09 00:52:52;;;;;;;5.20;1.98;;;;;;;15.22;63.93;99295.69;10391133;28;20065;-80
2022/09/09 00:57:54;;;;;;;5.07;2.00;;;;;;;15.07;64.05;99294.41;10394553;28;20081;-80
2022/09/09 01:03:33;;;;;;;9.10;2.10;;;;;;;14.89;64.72;99300.44;10392655;28;20053;-80
2022/09/09 01:09:06;;;;;;;4.25;2.08;;;;;;;14.84;65.30;99303.47;10393590;28;20419;-80
2022/09/09 01:14:25;;;;;;;7.43;2.20;;;;;;;14.94;64.93;99303.53;10391908;28;20049;-80
2022/09/09 01:19:45;;;;;;;8.68;2.25;;;;;;;15.00;64.10;99305.63;10394016;28;20414;-80
2022/09/09 01:25:05;;;;;;;5.63;2.13;;;;;;;14.83;64.35;99301.81;10392844;28;20899;-79
2022/09/09 01:30:13;;;;;;;5.82;2.22;;;;;;;14.86;64.77;99298.91;10391941;28;20487;-79
2022/09/09 01:35:37;;;;;;;9.02;2.25;;;;;;;14.53;65.57;99307.09;10389843;28;20729;-80
2022/09/09 01:40:39;;;;;;;7.50;2.10;;;;;;;14.71;65.52;99302.88;10390584;28;20053;-80
2022/09/09 01:45:44;;;;;;;7.15;2.20;;;;;;;14.88;65.28;99304.06;10395027;28;20163;-79
2022/09/09 01:50:45;;;;;;;6.38;2.17;;;;;;;14.80;65.09;99311.78;10390340;28;20057;-80
2022/09/09 01:56:07;;;;;;;7.43;2.03;;;;;;;15.03;65.01;99314.06;10391120;28;20053;-80
2022/09/09 02:01:24;;;;;;;7.18;2.10;;;;;;;15.14;64.80;99321.03;10391584;28;20065;-80
2022/09/09 02:06:47;;;;;;;6.40;1.90;;;;;;;15.07;64.88;99319.91;10399260;28;20096;-80
2022/09/09 02:11:53;;;;;;;5.10;1.77;;;;;;;15.26;64.64;99318.16;10397164;28;20053;-79
2022/09/09 02:17:07;;;;;;;4.43;1.90;;;;;;;15.26;64.28;99309.41;10399744;28;20056;-80
2022/09/09 02:22:09;;;;;;;6.80;2.10;;;;;;;15.23;63.99;99314.94;10396438;28;20075;-80
2022/09/09 02:27:12;;;;;;;9.70;2.53;;;;;;;15.09;63.97;99312.69;10398393;28;20059;-80
2022/09/09 02:32:18;;;;;;;6.07;2.42;;;;;;;14.87;64.67;99321.66;10395003;28;20057;-79
2022/09/09 02:37:28;;;;;;;8.07;2.05;;;;;;;14.92;64.60;99316.00;10404212;28;20426;-80
2022/09/09 02:42:30;;;;;;;6.00;2.03;;;;;;;14.78;64.37;99308.47;10402268;28;20415;-79
2022/09/09 02:54:18;;;;;;;9.57;2.00;;;;;;;14.55;65.60;99303.34;10404648;28;20037;-79
2022/09/09 02:59:21;;;;;;;4.53;1.90;;;;;;;14.73;65.25;99308.00;10404495;28;20057;-79
2022/09/09 03:04:24;;;;;;;5.80;2.08;;;;;;;14.95;64.73;99306.03;10409604;28;20049;-79
2022/09/09 03:09:25;;;;;;;6.80;1.85;;;;;;;15.00;64.49;99305.63;10398369;28;20065;-79
2022/09/09 03:14:27;;;;;;;7.85;1.90;;;;;;;15.01;64.15;99294.09;10399153;28;20060;-79
2022/09/09 03:19:29;;;;;;;5.38;1.90;;;;;;;14.83;64.28;99296.56;10396906;28;20053;-79
2022/09/09 03:24:31;;;;;;;5.75;2.00;;;;;;;14.59;64.70;99304.75;10396179;28;20046;-79
2022/09/09 03:29:33;;;;;;;5.50;2.08;;;;;;;14.26;65.50;99298.91;10396329;28;20053;-80
2022/09/09 03:34:34;;;;;;;8.65;1.98;;;;;;;14.41;65.42;99310.75;10399177;28;20049;-79
2022/09/09 03:39:36;;;;;;;6.70;2.22;;;;;;;14.56;65.43;99315.56;10394862;28;20065;-79
2022/09/09 03:44:38;;;;;;;6.63;2.35;;;;;;;14.64;65.41;99321.94;10397450;28;20045;-79
2022/09/09 03:49:40;;;;;;;5.22;2.00;;;;;;;14.74;65.35;99318.41;10395973;28;20060;-79
2022/09/09 03:54:42;;;;;;;7.88;2.10;;;;;;;14.66;65.43;99320.03;10398825;28;20053;-79
2022/09/09 03:59:43;;;;;;;5.35;2.00;;;;;;;14.65;65.53;99323.63;10396727;28;20427;-79
2022/09/09 04:04:45;;;;;;;7.65;2.05;;;;;;;14.61;65.80;99316.97;10396476;28;20065;-79
2022/09/09 04:09:47;;;;;;;5.00;1.95;;;;;;;14.67;65.66;99313.81;10393186;28;20064;-78
2022/09/09 04:14:49;;;;;;;6.28;2.30;;;;;;;14.58;65.63;99311.00;10396912;28;20876;-79
2022/09/09 04:19:50;;;;;;;7.45;2.13;;;;;;;14.59;65.87;99312.66;10393709;28;20526;-78
2022/09/09 04:24:52;;;;;;;7.35;1.70;;;;;;;14.72;65.79;99315.06;10398127;28;20414;-79
2022/09/09 04:29:56;;;;;;;4.85;1.98;;;;;;;14.96;65.42;99320.84;10394406;28;20499;-78
2022/09/09 04:34:58;;;;;;;5.45;1.92;;;;;;;15.11;64.97;99323.94;10396176;28;20053;-79
2022/09/09 04:40:02;;;;;;;6.57;2.00;;;;;;;15.04;64.89;99321.00;10396616;28;20064;-79
2022/09/09 04:45:04;;;;;;;7.47;2.50;;;;;;;14.81;65.10;99323.97;10396076;28;20462;-78
2022/09/09 04:50:06;;;;;;;6.47;2.25;;;;;;;14.79;65.55;99326.75;10393685;28;20061;-79
2022/09/09 04:55:09;;;;;;;6.25;2.03;;;;;;;14.87;65.34;99319.03;10394275;28;20038;-79
2022/09/09 05:00:12;;;;;;;5.80;1.85;;;;;;;14.97;65.23;99321.66;10392123;28;20058;-78
2022/09/09 05:05:14;;;;;;;9.50;2.05;;;;;;;15.10;65.12;99324.91;10394778;28;20054;-78
2022/09/09 05:10:17;;;;;;;5.18;1.90;;;;;;;15.08;65.01;99330.28;10394520;28;20918;-79
2022/09/09 05:15:20;;;;;;;8.05;1.88;;;;;;;14.95;65.11;99331.50;10395037;28;20494;-78
2022/09/09 05:20:22;;;;;;;6.03;1.70;;;;;;;14.83;65.67;99337.84;10394808;28;20392;-79
2022/09/09 05:25:25;;;;;;;5.85;1.90;;;;;;;14.90;65.57;99339.78;10394832;28;20049;-78
2022/09/09 05:30:27;;;;;;;4.72;1.60;;;;;;;15.09;65.39;99345.13;10391448;28;20053;-79
2022/09/09 05:35:29;;;;;;;11.65;1.92;;;;;;;15.25;65.05;99350.72;10393845;28;20414;-79
2022/09/09 05:40:31;;;;;;;7.82;1.83;;;;;;;15.45;64.82;99348.94;10390614;28;20909;-79
2022/09/09 05:45:33;;;;;;;9.27;1.60;;;;;;;15.64;64.54;99356.09;10390897;28;20057;-78
2022/09/09 05:50:34;;;;;;;5.28;1.80;;;;;;;15.85;63.95;99362.91;10391128;28;20061;-78
2022/09/09 05:55:36;;;;;;;8.68;1.88;;;;;;;15.84;63.82;99353.31;10392717;28;20056;-79
2022/09/09 06:00:38;;;;;;;13.18;2.00;;;;;;;15.82;63.68;99344.72;10393651;28;20502;-79
2022/09/09 06:05:40;;;;;;;4.63;1.60;;;;;;;15.96;63.34;99340.81;10392921;28;20411;-78
2022/09/09 06:10:41;;;;;;;5.40;1.80;;;;;;;16.01;63.15;99344.72;10391428;28;20422;-79
2022/09/09 06:15:52;;;;;;;5.20;1.92;;;;;;;15.99;63.15;99344.03;10392827;28;20050;-79
2022/09/09 06:21:06;;;;;;;6.55;1.80;;;;;;;16.15;62.90;99352.22;10390203;28;20119;-79
2022/09/09 06:26:11;;;;;;;5.47;1.85;;;;;;;16.22;62.70;99339.28;10391540;28;20042;-79
2022/09/09 06:31:14;;;;;;;6.20;1.88;;;;;;;16.11;62.92;99342.91;10388333;28;20076;-79
2022/09/09 06:36:21;;;;;;;7.18;1.70;;;;;;;16.27;63.38;99344.97;10391765;28;20064;-79
2022/09/09 06:41:26;;;;;;;7.20;2.00;;;;;;;16.35;63.29;99328.41;10390877;28;20045;-79
2022/09/09 06:46:32;;;;;;;8.40;1.88;;;;;;;16.45;62.48;99330.09;10390950;28;20702;-79
2022/09/09 06:51:36;;;;;;;7.88;2.03;;;;;;;16.87;62.21;99341.88;10386787;28;20158;-79
2022/09/09 06:56:43;;;;;;;6.72;1.90;;;;;;;17.27;60.72;99336.28;10391378;28;20582;-79
2022/09/09 07:01:46;;;;;;;5.68;1.63;;;;;;;17.46;60.18;99336.19;10389292;28;20053;-79
2022/09/09 07:06:52;;;;;;;6.25;1.70;;;;;;;17.53;59.73;99336.41;10382559;28;20521;-80
2022/09/09 07:11:54;;;;;;;5.43;1.63;;;;;;;17.48;59.72;99343.97;10385063;28;20057;-80
2022/09/09 07:16:56;;;;;;;8.10;1.83;;;;;;;17.63;59.00;99331.88;10386056;28;20478;-80
2022/09/09 07:22:02;;;;;;;11.13;1.95;;;;;;;17.58;59.00;99335.00;10389079;28;20045;-80
2022/09/09 07:27:05;;;;;;;6.63;1.70;;;;;;;17.71;58.43;99335.44;10395406;28;20052;-80
2022/09/09 07:32:06;;;;;;;7.35;1.83;;;;;;;18.06;58.03;99341.69;10393776;28;20513;-80
2022/09/09 07:37:11;;;;;;;8.07;2.00;;;;;;;18.42;56.63;99348.63;10388446;28;20049;-81
2022/09/09 07:42:14;;;;;;;7.40;2.15;;;;;;;18.90;54.57;99346.25;10387300;28;20107;-81
2022/09/09 07:47:16;;;;;;;7.53;1.90;;;;;;;19.18;53.79;99344.22;10390118;28;21129;-81
2022/09/09 07:52:19;;;;;;;9.45;1.70;;;;;;;19.05;52.48;99347.34;10393626;28;20521;-85
2022/09/09 07:57:22;;;;;;;6.47;1.90;;;;;;;19.59;51.71;99347.81;10394990;28;20411;-85
2022/09/09 08:02:29;;;;;;;7.97;2.30;;;;;;;20.40;48.99;99346.91;10394304;28;20084;-84
2022/09/09 08:07:32;;;;;;;7.30;1.70;;;;;;;20.85;47.10;99349.81;10404581;28;20419;-84
2022/09/09 08:18:56;;;;;;;9.07;1.67;;;;;;;21.81;44.94;99347.72;10387226;28;20688;-84
2022/09/09 08:23:59;;;;;;;5.60;1.70;;;;;;;22.35;43.44;99346.63;10382431;28;20058;-84
2022/09/09 08:29:04;;;;;;;7.47;1.80;;;;;;;22.50;42.50;99350.16;10398946;28;20053;-85
2022/09/09 08:34:07;;;;;;;9.15;1.77;;;;;;;22.52;42.18;99353.47;10393487;28;20474;-85
2022/09/09 08:39:11;;;;;;;5.03;1.48;;;;;;;22.73;42.74;99343.91;10390722;28;20045;-84
2022/09/09 08:44:22;;;;;;;8.00;1.85;;;;;;;22.66;41.46;99347.31;10389604;28;20057;-85
2022/09/09 08:50:07;;;;;;;6.90;1.77;;;;;;;22.34;41.81;99358.31;10391411;28;20406;-85
2022/09/09 08:55:35;;;;;;;4.63;1.58;;;;;;;22.12;40.98;99358.31;10385683;28;20103;-85
2022/09/09 09:00:59;;;;;;;7.68;1.60;;;;;;;22.17;40.84;99345.31;10389070;28;20070;-86
2022/09/09 09:06:29;;;;;;;5.47;1.55;;;;;;;21.23;41.86;99363.31;10390303;28;20418;-86
2022/09/09 09:11:47;;;;;;;7.43;1.63;;;;;;;21.14;41.66;99335.09;10391893;28;20080;-86
2022/09/09 09:16:54;;;;;;;5.53;1.58;;;;;;;21.87;40.36;99347.00;10390404;28;20049;-84
2022/09/09 09:22:17;;;;;;;4.70;1.50;;;;;;;21.30;39.98;99343.81;10389979;28;20136;-85
2022/09/09 09:27:35;;;;;;;7.15;1.50;;;;;;;21.19;40.60;99340.72;10387274;28;20049;-85
2022/09/09 09:32:41;;;;;;;6.43;1.55;;;;;;;20.73;41.71;99337.06;10392391;28;20142;-85
2022/09/09 09:37:46;;;;;;;7.05;1.60;;;;;;;20.70;42.02;99326.78;10388012;28;20099;-86
2022/09/09 09:43:20;;;;;;;7.68;1.58;;;;;;;20.73;41.85;99343.22;10376204;28;20810;-85
2022/09/09 09:48:22;;;;;;;7.57;1.30;;;;;;;21.05;41.50;99343.09;10386090;28;20148;-85
2022/09/09 09:53:29;;;;;;;5.65;1.67;;;;;;;20.97;41.03;99343.13;10386424;28;20062;-85
2022/09/09 09:58:44;;;;;;;6.63;1.60;;;;;;;21.09;40.60;99335.59;10390169;28;20164;-85
2022/09/09 10:03:53;;;;;;;5.82;1.60;;;;;;;21.47;40.35;99339.28;10385785;28;20472;-84
2022/09/09 10:08:57;;;;;;;8.15;1.63;;;;;;;21.77;40.14;99331.28;10388651;28;20481;-84
2022/09/09 10:14:14;;;;;;;4.00;1.33;;;;;;;21.87;38.33;99339.84;10390409;28;20057;-85
2022/09/09 10:19:31;;;;;;;5.57;1.50;;;;;;;21.84;38.82;99342.84;10375493;28;20053;-83
2022/09/09 10:25:11;;;;;;;6.35;1.50;;;;;;;22.12;38.74;99329.03;10375826;28;20684;-83
2022/09/09 10:30:20;;;;;;;3.35;1.23;;;;;;;22.33;37.60;99318.53;10368495;28;20046;-83
2022/09/09 10:35:33;;;;;;;6.47;1.63;;;;;;;22.25;36.56;99318.59;10350705;28;20917;-83
2022/09/09 10:40:56;;;;;;;4.82;1.52;;;;;;;22.26;36.34;99307.75;10373062;28;20115;-83
2022/09/09 10:46:19;;;;;;;6.28;1.80;;;;;;;22.36;35.98;99321.66;10378596;28;20115;-82
2022/09/09 10:52:07;;;;;;;4.95;1.35;;;;;;;22.05;36.85;99315.59;10390697;28;20080;-82
2022/09/09 10:57:21;;;;;;;5.30;1.60;;;;;;;22.40;36.60;99309.63;10386929;28;20503;-83
2022/09/09 11:02:33;;;;;;;4.68;1.30;;;;;;;22.48;36.49;99314.03;10396261;28;20485;-81
2022/09/09 11:08:06;;;;;;;4.13;1.13;;;;;;;22.84;35.74;99304.31;10388542;28;20521;-83
2022/09/09 11:13:21;;;;;;;4.65;1.20;;;;;;;23.01;35.83;99305.78;10385963;28;20525;-82
2022/09/09 11:18:24;;;;;;;5.80;1.33;;;;;;;23.16;36.19;99303.09;10383458;28;20144;-83
2022/09/09 11:23:49;;;;;;;4.50;1.20;;;;;;;23.22;35.30;99303.19;10382941;28;20057;-83
2022/09/09 11:29:17;;;;;;;5.40;1.40;;;;;;;23.11;35.56;99303.66;10391970;28;20144;-82
2022/09/09 11:34:43;;;;;;;3.45;1.27;;;;;;;22.85;36.32;99316.66;10382618;28;20045;-83
2022/09/09 11:40:16;;;;;;;4.47;1.40;;;;;;;22.64;35.73;99321.84;10393542;28;20526;-83
2022/09/09 11:45:29;;;;;;;4.20;1.10;;;;;;;22.37;36.20;99325.16;10380102;28;20065;-85
2022/09/09 11:50:36;;;;;;;3.85;1.35;;;;;;;22.01;36.69;99327.59;10403168;28;20495;-82
2022/09/09 11:55:39;;;;;;;4.53;1.40;;;;;;;21.83;37.74;99319.06;10382571;28;20049;-83
2022/09/09 12:00:45;;;;;;;4.90;1.40;;;;;;;21.86;38.14;99311.56;10386996;28;20057;-82
2022/09/09 12:05:56;;;;;;;5.18;1.45;;;;;;;21.80;38.01;99308.81;10381192;28;20574;-82
2022/09/09 12:11:04;;;;;;;6.43;1.50;;;;;;;22.16;38.14;99299.19;10380690;28;20144;-82
2022/09/09 12:16:30;;;;;;;4.53;1.40;;;;;;;22.17;37.69;99306.16;10379116;28;20320;-83
2022/09/09 12:21:47;;;;;;;3.92;1.40;;;;;;;22.01;38.27;99306.28;10380849;28;20064;-83
2022/09/09 12:27:07;;;;;;;4.28;1.38;;;;;;;21.73;39.34;99315.81;10378258;28;20045;-83
2022/09/09 12:32:18;;;;;;;4.32;1.33;;;;;;;21.47;39.28;99323.31;10393339;28;20172;-83
2022/09/09 12:37:37;;;;;;;4.68;1.42;;;;;;;21.02;40.21;99322.19;10392790;28;20079;-82
2022/09/09 12:42:40;;;;;;;5.95;1.30;;;;;;;21.62;40.51;99321.56;10391612;28;20049;-82
2022/09/09 12:47:48;;;;;;;3.22;0.98;;;;;;;21.92;39.49;99313.50;10396430;28;20065;-83
2022/09/09 12:52:53;;;;;;;3.58;1.17;;;;;;;22.14;40.55;99306.53;10394211;28;20076;-83
2022/09/09 12:57:55;;;;;;;3.10;1.10;;;;;;;22.09;42.38;99297.44;10387655;28;20273;-83
2022/09/09 13:02:59;;;;;;;4.60;1.25;;;;;;;22.35;41.90;99288.00;10395623;28;20066;-83
2022/09/09 13:08:03;;;;;;;4.22;1.30;;;;;;;22.42;40.75;99286.28;10394999;28;20135;-83
2022/09/09 13:13:14;;;;;;;4.05;1.20;;;;;;;22.34;40.51;99275.72;10397022;28;20140;-82
2022/09/09 13:18:19;;;;;;;6.32;1.30;;;;;;;22.55;41.03;99267.00;10396009;28;20057;-82
2022/09/09 13:23:22;;;;;;;3.72;1.33;;;;;;;22.69;40.70;99259.00;10381438;28;20053;-82
2022/09/09 13:28:29;;;;;;;3.78;1.10;;;;;;;22.81;39.51;99250.53;10392700;28;20049;-82
2022/09/09 13:33:39;;;;;;;5.30;1.13;;;;;;;22.91;39.82;99256.41;10382873;28;20517;-83
2022/09/09 13:38:51;;;;;;;4.90;1.40;;;;;;;23.01;38.02;99230.28;10387730;28;20050;-82
2022/09/09 13:43:54;;;;;;;3.72;1.23;;;;;;;23.40;38.28;99244.03;10383874;28;20165;-82
2022/09/09 13:48:58;;;;;;;4.45;1.25;;;;;;;23.58;37.41;99249.78;10386664;28;20049;-83
2022/09/09 13:54:01;;;;;;;5.75;1.33;;;;;;;23.33;37.88;99267.19;10387279;28;20061;-83
2022/09/09 13:59:04;;;;;;;3.17;1.17;;;;;;;23.01;38.17;99284.44;10385913;28;20045;-82
2022/09/09 14:04:06;;;;;;;4.85;1.40;;;;;;;22.69;39.24;99282.16;10388433;28;20053;-82
2022/09/09 14:09:12;;;;;;;8.05;1.52;;;;;;;21.71;43.84;99310.69;10393445;28;20057;-82
2022/09/09 14:14:14;;;;;;;4.90;1.05;;;;;;;21.01;46.60;99315.22;10396169;28;20045;-83
2022/09/09 14:19:15;;;;;;;7.93;1.30;;;;;;;20.63;48.08;99302.72;10386930;28;20056;-82
2022/09/09 14:24:17;;;;;;;5.80;1.30;;;;;;;20.77;49.12;99283.41;10389461;28;20065;-82
2022/09/09 14:29:19;;;;;;;4.53;1.45;;;;;;;20.96;49.53;99271.53;10394496;28;20139;-82
2022/09/09 14:34:21;;;;;;;3.08;1.08;;;;;;;21.05;49.26;99275.78;10394849;28;20059;-82
2022/09/09 14:39:22;;;;;;;5.68;1.20;;;;;;;21.04;49.70;99285.63;10398566;28;20041;-82
2022/09/09 14:44:24;;;;;;;4.10;1.20;;;;;;;20.82;48.98;99291.72;10403079;28;20089;-82
2022/09/09 14:49:26;;;;;;;3.80;1.10;;;;;;;20.97;50.27;99284.66;10396814;28;20051;-83
2022/09/09 14:54:28;;;;;;;3.15;1.00;;;;;;;20.96;49.16;99284.84;10397814;28;20067;-82
2022/09/09 14:59:29;;;;;;;5.57;1.45;;;;;;;20.89;48.70;99302.47;10399482;28;20045;-83
2022/09/09 15:04:31;;;;;;;4.25;1.40;;;;;;;20.38;49.31;99314.38;10388803;28;20071;-82
2022/09/09 15:09:33;;;;;;;5.05;1.48;;;;;;;20.14;50.37;99325.84;10398006;28;20053;-82
2022/09/09 15:14:35;;;;;;;4.28;1.27;;;;;;;20.16;50.26;99323.03;10393922;28;20057;-82
2022/09/09 15:19:37;;;;;;;6.93;1.40;;;;;;;20.07;50.62;99326.69;10386725;28;20548;-82
2022/09/09 15:24:40;;;;;;;4.55;1.20;;;;;;;19.98;50.96;99340.94;10386798;28;20380;-82
2022/09/09 15:29:44;;;;;;;4.22;1.30;;;;;;;19.95;51.38;99355.38;10388757;28;20050;-82
2022/09/09 15:34:47;;;;;;;3.28;1.15;;;;;;;19.64;52.41;99383.50;10400579;28;20438;-82
2022/09/09 15:39:49;;;;;;;6.38;1.30;;;;;;;18.83;52.42;99390.25;10391125;28;20053;-82
2022/09/09 15:44:51;;;;;;;4.35;1.02;;;;;;;18.12;56.19;99392.19;10387683;28;20140;-81
2022/09/09 15:49:57;;;;;;;5.03;1.13;;;;;;;17.92;57.39;99374.81;10389914;28;20567;-81
2022/09/09 15:55:01;;;;;;;5.00;1.20;;;;;;;17.92;58.23;99364.22;10386671;28;20062;-81
2022/09/09 16:00:04;;;;;;;4.28;1.40;;;;;;;17.95;59.07;99355.16;10389309;28;20335;-81
2022/09/09 16:05:07;;;;;;;6.30;1.40;;;;;;;17.90;59.17;99368.00;10389967;28;20057;-82
2022/09/09 16:10:10;;;;;;;3.97;1.30;;;;;;;17.92;59.91;99368.69;10387324;28;20057;-82
2022/09/09 16:15:12;;;;;;;5.10;1.30;;;;;;;17.94;60.77;99361.44;10387400;28;20064;-81
2022/09/09 16:20:14;;;;;;;6.32;1.52;;;;;;;18.15;60.31;99354.00;10385321;28;20049;-82
2022/09/09 16:25:16;;;;;;;3.38;1.20;;;;;;;18.26;59.52;99357.25;10394600;28;20418;-82
2022/09/09 16:30:17;;;;;;;5.05;1.23;;;;;;;18.45;58.93;99364.19;10391262;28;20087;-82
2022/09/09 16:35:20;;;;;;;2.40;1.10;;;;;;;18.74;58.38;99361.22;10396308;28;20710;-81
2022/09/09 16:40:22;;;;;;;4.55;1.10;;;;;;;18.87;58.01;99361.66;10392805;28;20049;-81
2022/09/09 16:45:24;;;;;;;3.83;1.17;;;;;;;18.90;58.13;99364.78;10394351;28;20960;-81
2022/09/09 16:50:26;;;;;;;3.50;1.10;;;;;;;19.17;57.77;99359.34;10392394;28;20053;-81
2022/09/09 16:55:29;;;;;;;3.63;1.20;;;;;;;19.05;56.99;99360.59;10387694;28;20706;-84
2022/09/09 17:00:30;;;;;;;4.57;1.10;;;;;;;18.79;57.81;99365.06;10391517;28;20061;-82
2022/09/09 17:05:32;;;;;;;2.53;0.77;;;;;;;18.49;58.21;99384.06;10395633;28;20057;-82
2022/09/09 17:10:34;;;;;;;2.75;1.10;;;;;;;18.25;58.56;99381.25;10394683;28;20050;-82
2022/09/09 17:15:42;;;;;;;3.13;0.88;;;;;;;18.04;59.11;99388.63;10391400;28;20085;-83
2022/09/09 17:20:45;;;;;;;2.17;0.93;;;;;;;17.84;58.62;99395.91;10394041;28;20053;-82
2022/09/09 17:25:56;;;;;;;2.83;0.90;;;;;;;17.77;59.06;99398.31;10394179;28;20063;-82
2022/09/09 17:31:01;;;;;;;2.85;1.10;;;;;;;17.66;58.78;99403.84;10393854;28;20878;-82
2022/09/09 17:36:30;;;;;;;3.38;1.20;;;;;;;17.50;59.50;99405.47;10389874;28;20490;-83
2022/09/09 17:41:42;;;;;;;4.22;1.00;;;;;;;17.41;59.21;99409.81;10373215;28;20053;-82
2022/09/09 17:46:45;;;;;;;6.50;1.00;;;;;;;17.31;59.61;99416.94;10386765;28;20053;-81
2022/09/09 17:51:47;;;;;;;1.63;0.90;;;;;;;17.39;59.82;99411.78;10377214;28;20097;-82
2022/09/09 17:56:49;;;;;;;2.97;1.10;;;;;;;17.36;59.83;99417.38;10383147;28;20089;-81
2022/09/09 18:01:51;;;;;;;4.22;1.23;;;;;;;17.29;60.22;99424.19;10378369;28;20523;-82
2022/09/09 18:06:54;;;;;;;5.20;1.13;;;;;;;17.19;60.25;99422.53;10382917;28;20048;-82
2022/09/09 18:11:57;;;;;;;3.55;1.00;;;;;;;17.24;60.55;99431.69;10383193;28;20075;-82
2022/09/09 18:17:02;;;;;;;2.00;0.95;;;;;;;17.22;60.81;99427.56;10381527;28;20077;-82
2022/09/09 18:22:05;;;;;;;5.78;1.10;;;;;;;17.25;61.07;99428.09;10379289;28;20071;-82
2022/09/09 18:27:07;;;;;;;2.83;1.20;;;;;;;17.28;61.39;99426.97;10377790;28;20056;-82
2022/09/09 18:32:10;;;;;;;5.70;1.30;;;;;;;17.26;61.05;99424.44;10380961;28;20065;-82
2022/09/09 18:37:13;;;;;;;3.53;1.10;;;;;;;17.18;61.65;99432.28;10385608;28;20041;-82
2022/09/09 18:42:15;;;;;;;4.35;1.15;;;;;;;17.12;61.78;99445.25;10382693;28;20080;-82
2022/09/09 18:47:17;;;;;;;5.07;1.30;;;;;;;17.07;61.44;99437.75;10385322;28;20046;-82
2022/09/09 18:52:19;;;;;;;3.72;1.23;;;;;;;17.09;61.38;99443.72;10396322;28;20045;-84
2022/09/09 18:57:21;;;;;;;2.72;0.88;;;;;;;17.00;61.15;99441.94;10386320;28;20561;-85
2022/09/09 19:02:22;;;;;;;2.33;1.27;;;;;;;16.90;61.36;99439.34;10386388;28;20149;-85
2022/09/09 19:07:24;;;;;;;3.13;1.00;;;;;;;16.86;60.69;99450.31;10390362;28;20526;-84
2022/09/09 19:12:26;;;;;;;3.47;1.00;;;;;;;16.75;60.66;99451.31;10381788;28;20050;-84
2022/09/09 19:17:29;;;;;;;3.83;1.00;;;;;;;16.64;61.00;99450.66;10387835;28;20053;-83
2022/09/09 19:22:30;;;;;;;4.47;1.10;;;;;;;16.67;60.73;99458.31;10391899;28;20049;-84
2022/09/09 19:27:33;;;;;;;5.68;1.20;;;;;;;16.55;60.57;99446.22;10387250;28;20049;-85
2022/09/09 19:32:38;;;;;;;2.92;0.98;;;;;;;16.53;61.10;99456.91;10391437;28;20132;-85
2022/09/09 19:37:56;;;;;;;3.33;1.02;;;;;;;16.47;60.88;99459.31;10381383;28;20046;-85
2022/09/09 19:42:58;;;;;;;1.33;0.90;;;;;;;16.40;61.41;99459.00;10392290;28;20142;-85
2022/09/09 19:48:00;;;;;;;4.30;1.17;;;;;;;16.33;61.16;99471.06;10373096;28;20054;-86
2022/09/09 19:53:02;;;;;;;4.30;1.30;;;;;;;16.19;61.02;99464.41;10372418;28;20053;-86
2022/09/09 19:58:04;;;;;;;3.22;1.15;;;;;;;16.07;61.51;99465.50;10373506;28;20053;-85
2022/09/09 20:03:06;;;;;;;3.38;1.00;;;;;;;16.01;61.55;99473.97;10370556;28;20061;-86
2022/09/09 20:08:20;;;;;;;3.97;1.20;;;;;;;15.91;62.15;99481.03;10385837;28;20045;-85
2022/09/09 20:13:22;;;;;;;3.65;1.10;;;;;;;15.83;61.89;99480.88;10378020;28;20084;-85
2022/09/09 20:18:31;;;;;;;6.25;1.15;;;;;;;15.69;61.78;99468.09;10387370;28;21747;-87
2022/09/09 20:23:33;;;;;;;3.22;1.00;;;;;;;15.54;62.19;99468.56;10392586;28;20049;-87
2022/09/09 20:28:37;;;;;;;3.45;0.88;;;;;;;15.54;62.06;99468.56;10366320;28;20099;-86
2022/09/09 20:33:40;;;;;;;4.03;1.50;;;;;;;15.47;62.18;99470.06;10389310;28;20053;-87
2022/09/09 20:39:06;;;;;;;3.95;1.00;;;;;;;15.29;62.29;99477.75;10396418;28;20052;-87
2022/09/09 20:44:13;;;;;;;3.25;1.00;;;;;;;15.23;62.43;99483.53;10386773;28;20064;-85
2022/09/09 20:49:20;;;;;;;2.17;0.90;;;;;;;15.19;62.89;99485.63;10387301;28;20052;-86
2022/09/09 20:54:24;;;;;;;3.13;1.00;;;;;;;15.26;62.43;99488.56;10387224;28;20400;-86
2022/09/09 20:59:29;;;;;;;2.53;1.08;;;;;;;15.21;62.78;99488.09;10386894;28;20054;-86
2022/09/09 21:04:31;;;;;;;3.33;1.00;;;;;;;15.22;62.59;99484.53;10392183;28;20057;-86
2022/09/09 21:09:33;;;;;;;2.58;1.00;;;;;;;15.19;62.62;99480.34;10391071;28;20056;-86
2022/09/09 21:14:34;;;;;;;2.53;1.10;;;;;;;15.19;62.78;99479.50;10387640;28;20422;-86
2022/09/09 21:19:36;;;;;;;5.10;1.10;;;;;;;15.19;62.68;99487.41;10392798;28;20419;-86
2022/09/09 21:24:38;;;;;;;3.78;1.10;;;;;;;15.32;62.61;99488.03;10387458;28;20082;-85
2022/09/09 21:29:39;;;;;;;2.30;1.00;;;;;;;15.34;62.57;99499.28;10382231;28;20060;-86
2022/09/09 21:34:41;;;;;;;3.75;1.23;;;;;;;15.32;62.60;99501.22;10392738;28;20663;-86
2022/09/09 21:39:49;;;;;;;4.93;1.42;;;;;;;15.36;62.54;99497.34;10389426;28;20054;-85
2022/09/09 21:44:51;;;;;;;5.93;1.85;;;;;;;15.06;63.06;99510.50;10386443;28;20049;-86
2022/09/09 21:49:52;;;;;;;3.17;1.20;;;;;;;14.83;63.53;99511.59;10392417;28;20045;-86
2022/09/09 21:54:54;;;;;;;3.30;1.20;;;;;;;14.70;63.84;99517.03;10387478;28;20049;-85
2022/09/09 21:59:56;;;;;;;3.63;1.13;;;;;;;14.74;64.05;99522.88;10386957;28;20053;-85
2022/09/09 22:04:58;;;;;;;4.45;1.30;;;;;;;14.85;64.25;99525.47;10389365;28;20446;-85
2022/09/09 22:10:00;;;;;;;5.05;1.40;;;;;;;14.89;63.99;99521.59;10388561;28;20045;-85
2022/09/09 22:15:02;;;;;;;3.55;1.20;;;;;;;14.85;64.03;99520.19;10380535;28;20064;-86
2022/09/09 22:20:05;;;;;;;5.25;1.25;;;;;;;14.75;64.40;99519.28;10388899;28;20049;-85
2022/09/09 22:25:07;;;;;;;1.95;1.13;;;;;;;14.55;65.10;99513.06;10385376;28;20085;-86
2022/09/09 22:30:10;;;;;;;4.82;1.40;;;;;;;14.33;65.87;99513.94;10383181;28;20049;-85
2022/09/09 22:35:12;;;;;;;3.67;1.40;;;;;;;14.31;66.23;99522.91;10384652;28;20514;-85
2022/09/09 22:40:14;;;;;;;4.63;1.38;;;;;;;14.46;66.15;99516.41;10390312;28;20042;-85
2022/09/09 22:45:15;;;;;;;3.08;1.13;;;;;;;14.58;65.77;99511.00;10390390;28;20049;-86
2022/09/09 22:50:17;;;;;;;5.22;1.52;;;;;;;14.67;65.69;99516.47;10389616;28;20050;-86
2022/09/09 22:55:19;;;;;;;4.20;1.50;;;;;;;14.76;65.73;99523.63;10394311;28;20408;-85
2022/09/09 23:00:20;;;;;;;4.60;1.38;;;;;;;14.66;65.48;99509.53;10397452;28;20053;-85
2022/09/09 23:05:23;;;;;;;6.32;1.40;;;;;;;14.67;65.49;99522.56;10395572;28;20056;-85
2022/09/09 23:10:25;;;;;;;5.38;1.70;;;;;;;14.61;65.76;99527.50;10396894;28;20052;-85
2022/09/09 23:15:30;;;;;;;6.63;1.60;;;;;;;14.62;65.74;99537.06;10397518;28;20111;-85
2022/09/09 23:20:32;;;;;;;5.05;1.50;;;;;;;14.67;65.55;99527.84;10395302;28;20060;-85
2022/09/09 23:25:34;;;;;;;4.80;1.80;;;;;;;14.61;65.47;99533.63;10382427;28;20049;-86
2022/09/09 23:31:12;;;;;;;5.93;1.70;;;;;;;14.42;66.13;99528.16;10393544;28;20056;-85
2022/09/09 23:36:16;;;;;;;6.35;1.90;;;;;;;14.43;66.02;99530.63;10392396;28;20053;-86
2022/09/09 23:41:19;;;;;;;5.18;1.52;;;;;;;14.29;66.29;99536.19;10393961;28;20061;-86
2022/09/09 23:46:27;;;;;;;6.43;2.00;;;;;;;14.36;66.55;99534.75;10394327;28;20049;-85
2022/09/09 23:51:30;;;;;;;5.75;1.50;;;;;;;14.60;65.87;99526.66;10390038;28;20084;-85
2022/09/09 23:56:39;;;;;;;6.78;1.48;;;;;;;14.67;65.76;99524.38;10412615;28;20057;-85
